Time;durP1;ratioP1;P1;durP2;ratioP2;P2;SDS_P1;SDS_P2;PMS_P1;PMS_P2;Temp;Humidity;BMP_temperature;BMP_pressure;BME280_temperature;BME280_humidity;BME280_pressure;Samples;Min_cycle;Max_cycle;Signal;HPM_P1;HPM_P2
2021/05/18 00:00:34;;;;;;;5.90;2.13;;;12.50;99.90;;;;;;5036237;28;20934;-55
2021/05/18 00:03:01;;;;;;;4.80;2.73;;;12.40;99.90;;;;;;5036531;28;20495;-51
2021/05/18 00:05:28;;;;;;;3.20;2.80;;;12.40;99.90;;;;;;5035976;28;20458;-54
2021/05/18 00:07:57;;;;;;;2.43;2.23;;;12.40;99.90;;;;;;5036203;28;20448;-54
2021/05/18 00:13:09;;;;;;;2.20;2.00;;;12.30;99.90;;;;;;5036378;28;20408;-55
2021/05/18 00:15:35;;;;;;;3.67;2.00;;;12.30;99.90;;;;;;5036341;28;20475;-50
2021/05/18 00:18:03;;;;;;;2.37;2.00;;;12.40;99.90;;;;;;5036788;28;20444;-49
2021/05/18 00:20:29;;;;;;;3.00;2.10;;;12.30;99.90;;;;;;5036789;28;20491;-54
2021/05/18 00:22:55;;;;;;;4.90;1.90;;;12.30;99.90;;;;;;5036149;28;20448;-53
2021/05/18 00:25:21;;;;;;;2.80;1.93;;;12.20;99.90;;;;;;5036571;28;20459;-53
2021/05/18 00:27:48;;;;;;;2.83;2.20;;;12.20;99.90;;;;;;5037184;28;20444;-49
2021/05/18 00:30:16;;;;;;;2.77;1.80;;;12.10;99.90;;;;;;5037358;28;20448;-51
2021/05/18 00:32:42;;;;;;;2.70;1.90;;;12.10;99.90;;;;;;5036590;28;20455;-50
2021/05/18 00:35:11;;;;;;;2.20;1.80;;;12.10;99.90;;;;;;5036838;28;20512;-51
2021/05/18 00:37:38;;;;;;;2.50;1.93;;;12.10;99.90;;;;;;5038480;28;20496;-50
2021/05/18 00:40:09;;;;;;;2.33;2.00;;;12.00;99.90;;;;;;5036952;28;20451;-55
2021/05/18 00:42:45;;;;;;;1.97;1.80;;;11.90;99.90;;;;;;5037473;28;20520;-56
2021/05/18 00:45:13;;;;;;;3.00;1.80;;;11.90;99.90;;;;;;5036863;28;20439;-56
2021/05/18 00:47:39;;;;;;;2.70;2.20;;;11.90;99.90;;;;;;5037169;28;20507;-53
2021/05/18 00:50:06;;;;;;;2.90;1.80;;;11.80;99.90;;;;;;5036769;28;20456;-54
2021/05/18 00:52:34;;;;;;;3.17;2.40;;;11.80;99.90;;;;;;5036644;28;20781;-54
2021/05/18 00:55:04;;;;;;;1.73;1.30;;;11.70;99.90;;;;;;5036831;28;20436;-54
2021/05/18 01:00:16;;;;;;;2.00;1.80;;;11.70;99.90;;;;;;5040323;28;20985;-53
2021/05/18 01:02:45;;;;;;;6.20;1.97;;;11.70;99.90;;;;;;5040468;28;20475;-54
2021/05/18 01:05:17;;;;;;;3.13;2.27;;;11.70;99.90;;;;;;5041155;28;20509;-47
2021/05/18 01:07:44;;;;;;;3.03;2.37;;;11.70;99.90;;;;;;5040854;28;20494;-53
2021/05/18 01:10:12;;;;;;;3.83;2.50;;;11.60;99.90;;;;;;5041121;28;20547;-53
2021/05/18 01:12:38;;;;;;;2.47;1.97;;;11.60;99.90;;;;;;5041096;28;20448;-49
2021/05/18 01:15:06;;;;;;;2.73;2.10;;;11.60;99.90;;;;;;5040620;28;20843;-54
2021/05/18 01:17:32;;;;;;;4.57;2.20;;;11.60;99.90;;;;;;5040114;28;20460;-54
2021/05/18 01:20:08;;;;;;;2.80;2.17;;;11.60;99.90;;;;;;5039976;28;20813;-52
2021/05/18 01:22:35;;;;;;;2.87;1.80;;;11.60;99.90;;;;;;5040154;28;20440;-51
2021/05/18 01:25:01;;;;;;;2.60;1.60;;;11.60;99.90;;;;;;5039462;28;20491;-54
2021/05/18 01:27:27;;;;;;;2.03;1.80;;;11.60;99.90;;;;;;5039629;28;20529;-51
2021/05/18 01:29:53;;;;;;;4.07;2.30;;;11.50;99.90;;;;;;5039872;28;20448;-55
2021/05/18 01:32:23;;;;;;;3.20;2.23;;;11.50;99.90;;;;;;5039777;28;20444;-50
2021/05/18 01:34:49;;;;;;;4.60;2.70;;;11.50;99.90;;;;;;5039922;28;20485;-55
2021/05/18 01:37:15;;;;;;;2.17;1.77;;;11.50;99.90;;;;;;5040632;28;20509;-51
2021/05/18 01:39:53;;;;;;;3.93;2.13;;;11.50;99.90;;;;;;5040691;28;20463;-51
2021/05/18 01:45:08;;;;;;;2.90;2.53;;;11.40;99.90;;;;;;5039723;28;20466;-52
2021/05/18 01:47:34;;;;;;;2.23;2.03;;;11.40;99.90;;;;;;5039778;28;20500;-49
2021/05/18 01:50:01;;;;;;;2.60;1.87;;;11.30;99.90;;;;;;5039525;28;20478;-55
2021/05/18 01:52:27;;;;;;;3.60;2.70;;;11.30;99.90;;;;;;5039810;28;20448;-54
2021/05/18 01:54:54;;;;;;;2.50;2.30;;;11.30;99.90;;;;;;5040301;28;20444;-53
2021/05/18 01:57:21;;;;;;;2.43;1.70;;;11.30;99.90;;;;;;5040604;28;20485;-50
2021/05/18 01:59:50;;;;;;;2.60;1.90;;;11.20;99.90;;;;;;5040159;28;20490;-48
2021/05/18 02:02:17;;;;;;;2.10;1.90;;;11.20;99.90;;;;;;5040708;28;20508;-53
2021/05/18 02:04:47;;;;;;;4.10;2.20;;;11.10;99.90;;;;;;5039703;28;20476;-53
2021/05/18 02:07:18;;;;;;;2.47;2.23;;;11.10;99.90;;;;;;5039215;28;20460;-50
2021/05/18 02:09:44;;;;;;;3.07;2.10;;;11.10;99.90;;;;;;5038844;28;20456;-56
2021/05/18 02:12:11;;;;;;;3.60;2.60;;;11.10;99.90;;;;;;5039501;28;20445;-55
2021/05/18 02:14:39;;;;;;;3.80;2.50;;;11.10;99.90;;;;;;5039610;28;20444;-48
2021/05/18 02:17:13;;;;;;;2.70;2.00;;;11.10;99.90;;;;;;5039633;28;20833;-54
2021/05/18 02:20:06;;;;;;;3.17;2.30;;;11.10;99.90;;;;;;5039491;28;20499;-53
2021/05/18 02:25:19;;;;;;;5.77;2.23;;;11.00;99.90;;;;;;5039529;28;20449;-51
2021/05/18 02:27:47;;;;;;;3.23;2.57;;;11.10;99.90;;;;;;5039863;28;20460;-54
2021/05/18 02:30:15;;;;;;;3.20;1.97;;;11.10;99.90;;;;;;5039664;28;20436;-53
2021/05/18 02:32:42;;;;;;;2.40;2.07;;;11.10;99.90;;;;;;5039139;28;20448;-53
2021/05/18 02:35:10;;;;;;;2.97;2.30;;;11.10;99.90;;;;;;5040166;28;20460;-54
2021/05/18 02:37:38;;;;;;;2.67;1.70;;;11.10;99.90;;;;;;5039162;28;20440;-53
2021/05/18 02:40:07;;;;;;;2.90;2.30;;;11.10;99.90;;;;;;5039236;28;20445;-53
2021/05/18 02:42:34;;;;;;;4.20;1.67;;;11.10;99.90;;;;;;5038713;28;20475;-55
2021/05/18 02:45:02;;;;;;;2.80;1.73;;;11.10;99.90;;;;;;5040044;28;20491;-53
2021/05/18 02:50:13;;;;;;;2.60;2.40;;;11.00;99.90;;;;;;5040659;28;20469;-55
2021/05/18 02:52:41;;;;;;;2.80;2.17;;;11.10;99.90;;;;;;5039341;28;20992;-52
2021/05/18 02:55:10;;;;;;;4.80;2.87;;;11.00;99.90;;;;;;5039880;28;20473;-51
2021/05/18 02:57:38;;;;;;;3.30;2.33;;;11.00;99.90;;;;;;5039500;28;20448;-53
2021/05/18 03:00:12;;;;;;;3.10;1.87;;;11.00;99.90;;;;;;5040283;28;20543;-50
2021/05/18 03:02:39;;;;;;;4.13;2.37;;;10.90;99.90;;;;;;5040500;28;20477;-53
2021/05/18 03:05:06;;;;;;;2.33;1.83;;;10.90;99.90;;;;;;5040214;28;20476;-51
2021/05/18 03:07:32;;;;;;;3.37;1.90;;;10.90;99.90;;;;;;5039476;28;20456;-52
2021/05/18 03:09:58;;;;;;;2.13;1.80;;;10.90;99.90;;;;;;5039608;28;20448;-51
2021/05/18 03:12:25;;;;;;;3.77;2.10;;;11.00;99.90;;;;;;5039600;28;20535;-52
2021/05/18 03:14:51;;;;;;;4.37;2.00;;;11.10;99.90;;;;;;5040028;28;20449;-53
2021/05/18 03:17:18;;;;;;;4.90;2.20;;;11.00;99.90;;;;;;5039558;28;20448;-49
2021/05/18 03:19:46;;;;;;;3.10;2.27;;;11.00;99.90;;;;;;5040051;28;21011;-48
2021/05/18 03:22:12;;;;;;;1.83;1.40;;;11.00;99.90;;;;;;5039210;28;20448;-53
2021/05/18 03:24:42;;;;;;;1.70;1.43;;;11.00;99.90;;;;;;5039078;28;20511;-51
2021/05/18 03:27:08;;;;;;;2.93;1.57;;;11.00;99.90;;;;;;5039731;28;20456;-52
2021/05/18 03:29:35;;;;;;;4.53;1.97;;;11.00;99.90;;;;;;5039376;28;20448;-50
2021/05/18 03:34:47;;;;;;;1.97;1.53;;;11.00;99.90;;;;;;5039057;28;20509;-53
2021/05/18 03:37:17;;;;;;;1.90;1.60;;;11.10;99.90;;;;;;5039057;28;20441;-49
2021/05/18 03:39:46;;;;;;;2.00;1.70;;;11.20;99.90;;;;;;5038919;28;20516;-50
2021/05/18 03:42:15;;;;;;;2.97;1.53;;;11.10;99.90;;;;;;5038894;28;20475;-54
2021/05/18 03:45:01;;;;;;;2.40;1.70;;;11.20;99.90;;;;;;5038615;28;20484;-55
2021/05/18 03:53:08;;;;;;;2.00;1.80;;;11.40;99.90;;;;;;5038970;28;20435;-53
2021/05/18 03:58:38;;;;;;;4.10;2.10;;;11.50;99.90;;;;;;5013662;28;20435;-53
2021/05/18 04:03:55;;;;;;;2.57;1.97;;;11.70;99.90;;;;;;5038538;28;20475;-56
2021/05/18 04:12:13;;;;;;;2.87;1.60;;;11.90;99.90;;;;;;5031323;28;20522;-55
2021/05/18 04:17:26;;;;;;;2.17;1.80;;;12.00;99.90;;;;;;5037927;28;20434;-55
2021/05/18 04:20:00;;;;;;;2.03;1.83;;;12.10;99.90;;;;;;5037456;28;20468;-49
2021/05/18 04:22:52;;;;;;;6.50;2.37;;;12.10;99.90;;;;;;5037639;28;20456;-55
2021/05/18 04:25:43;;;;;;;1.83;1.60;;;12.20;99.90;;;;;;5038306;28;20484;-53
2021/05/18 04:39:17;;;;;;;2.17;1.73;;;12.40;99.90;;;;;;5041454;28;20481;-50
2021/05/18 04:42:26;;;;;;;2.70;1.67;;;12.50;99.90;;;;;;5041595;28;20462;-51
2021/05/18 04:50:44;;;;;;;3.70;2.57;;;12.70;99.90;;;;;;5040500;28;20436;-50
2021/05/18 04:53:15;;;;;;;2.83;2.17;;;12.80;99.90;;;;;;5041242;28;20436;-56
2021/05/18 05:01:14;;;;;;;2.73;2.40;;;12.90;99.90;;;;;;5040760;28;20407;-52
2021/05/18 05:03:58;;;;;;;3.93;2.70;;;12.90;99.90;;;;;;5041015;28;20479;-55
2021/05/18 05:06:34;;;;;;;3.13;2.70;;;12.80;99.90;;;;;;5039846;28;20468;-56
2021/05/18 05:09:11;;;;;;;3.17;2.07;;;12.80;99.90;;;;;;5040831;28;20538;-55
2021/05/18 05:14:24;;;;;;;3.70;2.50;;;12.80;99.90;;;;;;5039748;28;20534;-53
2021/05/18 05:16:52;;;;;;;3.30;2.60;;;12.70;99.90;;;;;;5040329;28;20535;-51
2021/05/18 05:19:18;;;;;;;3.70;2.93;;;12.70;99.90;;;;;;5040221;28;20530;-50
2021/05/18 05:21:45;;;;;;;3.27;2.67;;;12.70;99.90;;;;;;5040677;28;20452;-52
2021/05/18 05:24:11;;;;;;;4.67;2.97;;;12.70;99.90;;;;;;5040425;28;20514;-53
2021/05/18 05:26:40;;;;;;;3.57;2.40;;;12.80;99.90;;;;;;5040680;28;20451;-54
2021/05/18 05:29:07;;;;;;;5.57;3.30;;;12.80;99.90;;;;;;5040097;28;20528;-55
2021/05/18 05:31:37;;;;;;;5.70;3.20;;;12.80;99.90;;;;;;5040457;28;20484;-49
2021/05/18 05:34:03;;;;;;;4.20;3.33;;;12.80;99.90;;;;;;5038314;28;20913;-46
2021/05/18 05:36:30;;;;;;;4.57;3.27;;;12.70;99.90;;;;;;5038712;28;20448;-48
2021/05/18 05:39:02;;;;;;;4.63;3.50;;;12.80;99.90;;;;;;5038691;28;20476;-53
2021/05/18 05:41:28;;;;;;;4.20;3.00;;;12.80;99.90;;;;;;5037882;28;20539;-54
2021/05/18 05:43:55;;;;;;;3.80;3.00;;;12.80;99.90;;;;;;5037829;28;20480;-46
2021/05/18 05:46:21;;;;;;;13.80;3.80;;;12.90;99.90;;;;;;5038479;28;20467;-48
2021/05/18 05:48:52;;;;;;;6.50;4.00;;;12.90;99.90;;;;;;5038206;28;20445;-46
2021/05/18 05:51:19;;;;;;;5.60;4.17;;;13.00;99.90;;;;;;5037677;28;20446;-49
2021/05/18 05:53:46;;;;;;;5.70;4.20;;;13.10;99.90;;;;;;5037545;28;20536;-53
2021/05/18 05:56:12;;;;;;;5.50;4.13;;;13.20;99.90;;;;;;5037114;28;20452;-48
2021/05/18 05:58:38;;;;;;;5.70;4.70;;;13.20;99.90;;;;;;5040430;28;20441;-51
2021/05/18 06:01:05;;;;;;;8.20;4.60;;;13.30;99.90;;;;;;5037012;28;20448;-51
2021/05/18 06:03:33;;;;;;;4.23;3.73;;;13.30;99.90;;;;;;5038716;28;20482;-50
2021/05/18 06:05:59;;;;;;;6.07;4.00;;;13.40;99.90;;;;;;5042918;28;20444;-48
2021/05/18 06:08:25;;;;;;;5.43;4.23;;;13.40;99.90;;;;;;5043615;28;20470;-46
2021/05/18 06:10:55;;;;;;;9.43;4.67;;;13.50;99.90;;;;;;5043471;28;20463;-50
2021/05/18 06:34:02;;;;;;;5.80;4.97;;;13.90;99.90;;;;;;5041666;28;20408;-48
2021/05/18 06:47:07;;;;;;;8.30;6.50;;;13.70;99.90;;;;;;4982329;28;20438;-46
2021/05/18 06:49:37;;;;;;;8.90;7.27;;;13.60;99.90;;;;;;5028359;28;20475;-51
2021/05/18 06:52:04;;;;;;;8.07;7.20;;;13.50;99.90;;;;;;5015220;28;21021;-50
2021/05/18 06:54:30;;;;;;;8.50;6.97;;;13.50;99.90;;;;;;5014995;28;20441;-47
2021/05/18 06:57:00;;;;;;;7.67;6.43;;;13.50;99.90;;;;;;5014807;28;20796;-53
2021/05/18 07:02:10;;;;;;;14.90;8.10;;;13.50;99.90;;;;;;5042667;28;20457;-46
2021/05/18 07:04:38;;;;;;;9.87;8.13;;;13.40;99.90;;;;;;5040792;28;20491;-51
2021/05/18 07:07:14;;;;;;;10.37;8.53;;;13.30;99.90;;;;;;5036663;28;20773;-51
2021/05/18 07:09:40;;;;;;;11.50;8.43;;;13.40;99.90;;;;;;5037119;28;20443;-53
2021/05/18 07:12:09;;;;;;;11.27;8.60;;;13.40;99.90;;;;;;5036490;28;20531;-52
2021/05/18 07:14:36;;;;;;;10.43;7.77;;;13.40;99.90;;;;;;5036277;28;20913;-49
2021/05/18 07:17:02;;;;;;;10.27;7.80;;;13.50;99.90;;;;;;5036971;28;20445;-48
2021/05/18 07:19:28;;;;;;;9.47;7.57;;;13.50;99.90;;;;;;5036002;28;20476;-51
2021/05/18 07:21:55;;;;;;;10.97;6.83;;;13.60;99.90;;;;;;5035287;28;20421;-50
2021/05/18 07:24:23;;;;;;;12.27;8.17;;;13.40;99.90;;;;;;5036898;28;20488;-47
2021/05/18 07:26:50;;;;;;;8.90;6.73;;;13.70;99.90;;;;;;5035361;28;20509;-52
2021/05/18 07:29:17;;;;;;;12.03;7.80;;;13.70;99.90;;;;;;5035606;28;20456;-49
2021/05/18 07:31:43;;;;;;;12.10;8.13;;;13.60;99.90;;;;;;5035429;28;20495;-54
2021/05/18 07:34:10;;;;;;;8.53;6.90;;;13.70;99.90;;;;;;5037608;28;20773;-51
2021/05/18 07:36:36;;;;;;;7.80;6.50;;;13.80;99.90;;;;;;5034713;28;20456;-47
2021/05/18 07:39:04;;;;;;;8.40;5.90;;;14.00;99.90;;;;;;5031794;28;20444;-48
2021/05/18 08:58:53;;;;;;;7.43;1.73;;;15.20;99.90;;;;;;5034426;28;20476;-49
2021/05/18 10:36:35;;;;;;;2.50;2.23;;;15.00;99.90;;;;;;5096285;28;20432;-51
2021/05/18 10:39:15;;;;;;;3.20;2.37;;;15.00;99.90;;;;;;5095089;28;20436;-44
2021/05/18 10:41:41;;;;;;;2.20;1.60;;;15.00;99.90;;;;;;5043464;28;20499;-49
2021/05/18 10:44:07;;;;;;;3.60;1.60;;;14.90;99.90;;;;;;5097162;28;20477;-46
2021/05/18 10:46:47;;;;;;;2.80;2.07;;;14.90;99.90;;;;;;5065900;28;20453;-44
2021/05/18 10:49:17;;;;;;;4.43;2.33;;;15.10;99.90;;;;;;5076253;28;20448;-45
2021/05/18 10:51:54;;;;;;;3.97;3.67;;;15.20;99.90;;;;;;5042034;28;20488;-44
2021/05/18 10:54:24;;;;;;;3.23;2.40;;;15.30;99.90;;;;;;5071793;28;20446;-49
2021/05/18 10:57:30;;;;;;;4.60;2.37;;;15.30;99.90;;;;;;5057528;28;20471;-43
2021/05/18 10:59:58;;;;;;;3.80;2.93;;;15.40;99.90;;;;;;4964040;28;20450;-44
2021/05/18 11:02:28;;;;;;;2.80;2.30;;;15.80;99.90;;;;;;5028214;28;20795;-44
2021/05/18 11:04:58;;;;;;;3.97;2.40;;;16.50;99.90;;;;;;5060622;28;20576;-44
2021/05/18 11:07:30;;;;;;;4.07;2.93;;;16.50;99.90;;;;;;5069436;28;20514;-46
2021/05/18 11:09:56;;;;;;;3.30;2.77;;;16.70;99.90;;;;;;5037362;28;20452;-45
2021/05/18 11:12:26;;;;;;;3.17;2.60;;;16.60;99.90;;;;;;5032726;28;20905;-44
2021/05/18 11:15:05;;;;;;;3.27;2.93;;;16.30;99.90;;;;;;5034638;28;20484;-45
2021/05/18 11:17:33;;;;;;;3.63;2.47;;;15.90;99.90;;;;;;5035824;28;20451;-44
2021/05/18 11:20:14;;;;;;;4.33;2.30;;;16.10;99.90;;;;;;5035461;28;20444;-46
2021/05/18 11:25:41;;;;;;;4.53;3.13;;;16.60;99.90;;;;;;5035130;28;20599;-46
2021/05/18 11:28:10;;;;;;;5.37;2.97;;;16.80;99.90;;;;;;5034995;28;20456;-46
2021/05/18 11:30:37;;;;;;;5.83;2.83;;;16.90;99.90;;;;;;5035105;28;20509;-46
2021/05/18 11:33:03;;;;;;;4.33;2.80;;;16.90;99.90;;;;;;5034074;28;20478;-46
2021/05/18 11:35:31;;;;;;;4.63;3.00;;;16.90;99.90;;;;;;5034964;28;20580;-44
2021/05/18 11:38:06;;;;;;;5.07;2.90;;;16.80;99.90;;;;;;5034446;28;20952;-43
2021/05/18 11:40:48;;;;;;;3.30;2.70;;;16.60;99.90;;;;;;5034287;28;20439;-44
2021/05/18 11:43:17;;;;;;;5.10;2.97;;;16.40;99.90;;;;;;5033805;28;20445;-47
2021/05/18 11:45:44;;;;;;;4.40;2.70;;;16.60;99.90;;;;;;5034349;28;20536;-49
2021/05/18 11:48:16;;;;;;;5.33;2.80;;;16.80;99.90;;;;;;5035052;28;20494;-46
2021/05/18 11:50:43;;;;;;;4.50;3.30;;;16.90;99.90;;;;;;5034208;28;20484;-47
2021/05/18 11:53:28;;;;;;;4.20;3.30;;;17.10;99.90;;;;;;5034278;28;20425;-47
2021/05/18 11:55:54;;;;;;;4.83;3.20;;;17.00;99.90;;;;;;5034096;28;20448;-45
2021/05/18 11:58:21;;;;;;;4.17;2.63;;;17.00;99.90;;;;;;5035214;28;20478;-43
2021/05/18 12:00:47;;;;;;;6.43;3.20;;;17.00;99.90;;;;;;5034358;28;20449;-49
2021/05/18 12:03:13;;;;;;;5.23;3.93;;;17.10;99.90;;;;;;5035638;28;20559;-45
2021/05/18 12:05:55;;;;;;;7.20;4.20;;;17.10;99.90;;;;;;5033341;28;20484;-45
2021/05/18 12:08:29;;;;;;;5.77;4.03;;;17.00;99.90;;;;;;5033723;28;20462;-44
2021/05/18 12:10:56;;;;;;;8.10;4.23;;;16.80;99.90;;;;;;5033247;28;20475;-50
2021/05/18 12:13:32;;;;;;;9.27;4.43;;;16.80;99.90;;;;;;5033312;28;20451;-48
2021/05/18 12:16:03;;;;;;;5.67;4.30;;;16.90;99.90;;;;;;5033760;28;20452;-49
2021/05/18 12:18:33;;;;;;;6.77;3.60;;;17.00;99.90;;;;;;5033389;28;20444;-44
2021/05/18 12:21:05;;;;;;;5.73;3.40;;;16.90;99.90;;;;;;5065918;28;20909;-44
2021/05/18 12:23:32;;;;;;;6.70;4.17;;;17.00;99.90;;;;;;5075052;28;20437;-47
2021/05/18 12:26:16;;;;;;;10.43;4.50;;;17.00;99.90;;;;;;5051772;28;20816;-43
2021/05/18 12:28:56;;;;;;;4.57;3.70;;;16.90;99.90;;;;;;5076109;28;20449;-47
2021/05/18 12:31:30;;;;;;;5.80;3.67;;;16.80;99.90;;;;;;5073446;28;20543;-42
2021/05/18 12:33:56;;;;;;;4.47;3.33;;;16.80;99.90;;;;;;5039334;28;20439;-49
2021/05/18 12:36:24;;;;;;;11.10;4.30;;;16.70;99.90;;;;;;5068820;28;20470;-45
2021/05/18 12:39:12;;;;;;;4.13;2.43;;;16.60;99.90;;;;;;5077606;28;20445;-45
2021/05/18 12:41:49;;;;;;;6.90;2.87;;;16.30;99.90;;;;;;5052741;28;20800;-44
2021/05/18 12:44:16;;;;;;;6.00;2.87;;;16.10;99.90;;;;;;5063720;28;20495;-42
2021/05/18 12:46:57;;;;;;;7.47;2.80;;;16.10;99.90;;;;;;5061744;28;20448;-45
2021/05/18 12:49:26;;;;;;;5.77;2.90;;;16.20;99.90;;;;;;5056610;28;20470;-44
2021/05/18 12:52:08;;;;;;;2.97;2.33;;;16.40;99.90;;;;;;5057597;28;20472;-44
2021/05/18 12:54:43;;;;;;;7.43;3.00;;;16.40;99.90;;;;;;5041217;28;20853;-42
2021/05/18 12:57:12;;;;;;;5.90;2.60;;;16.40;99.90;;;;;;5040643;28;20481;-44
2021/05/18 12:59:57;;;;;;;5.70;2.97;;;16.40;99.90;;;;;;5092392;28;20455;-43
2021/05/18 13:02:31;;;;;;;5.47;3.63;;;16.40;99.90;;;;;;5072810;28;20439;-47
2021/05/18 13:05:10;;;;;;;7.47;3.37;;;16.50;99.90;;;;;;5077536;28;20806;-43
2021/05/18 13:07:38;;;;;;;5.73;2.40;;;16.60;99.90;;;;;;5067194;28;20455;-43
2021/05/18 13:10:16;;;;;;;3.50;2.70;;;16.60;99.90;;;;;;5058260;28;20460;-43
2021/05/18 13:12:43;;;;;;;5.43;2.43;;;16.60;99.90;;;;;;5053891;28;20447;-45
2021/05/18 13:15:10;;;;;;;6.30;2.67;;;16.50;99.90;;;;;;5054436;28;20505;-46
2021/05/18 13:17:37;;;;;;;4.47;2.40;;;16.40;99.90;;;;;;5077452;28;20460;-44
2021/05/18 13:20:07;;;;;;;8.63;4.20;;;16.20;99.90;;;;;;5063206;28;20451;-43
2021/05/18 13:22:36;;;;;;;5.43;3.10;;;16.00;99.90;;;;;;5068090;28;20448;-44
2021/05/18 13:27:58;;;;;;;3.60;2.27;;;16.00;99.90;;;;;;5098491;28;20440;-43
2021/05/18 13:30:26;;;;;;;3.83;2.33;;;16.00;99.90;;;;;;5073411;28;20451;-43
2021/05/18 13:32:53;;;;;;;3.47;2.27;;;16.00;99.90;;;;;;5074802;28;20818;-47
2021/05/18 13:35:21;;;;;;;4.13;2.67;;;16.10;99.90;;;;;;5088080;28;20700;-43
2021/05/18 13:37:48;;;;;;;7.63;2.33;;;16.20;99.90;;;;;;5079125;28;20950;-46
2021/05/18 13:40:17;;;;;;;6.37;2.57;;;16.20;99.90;;;;;;5073182;28;20935;-44
2021/05/18 13:42:47;;;;;;;6.63;2.17;;;16.20;99.90;;;;;;5052674;28;20468;-43
2021/05/18 13:45:14;;;;;;;4.50;2.57;;;16.50;99.90;;;;;;5054785;28;20486;-43
2021/05/18 13:47:40;;;;;;;2.70;2.33;;;16.40;99.90;;;;;;5053553;28;20444;-44
2021/05/18 13:50:08;;;;;;;3.80;1.97;;;16.70;99.90;;;;;;5074729;28;20440;-45
2021/05/18 13:52:34;;;;;;;5.47;2.30;;;16.80;99.90;;;;;;5088395;28;20464;-45
2021/05/18 13:55:01;;;;;;;4.17;2.53;;;17.00;99.90;;;;;;5078701;28;20455;-46
2021/05/18 13:57:28;;;;;;;3.40;2.40;;;17.10;99.90;;;;;;5056027;28;20933;-45
2021/05/18 13:59:57;;;;;;;4.97;2.70;;;17.20;99.90;;;;;;5046430;28;20441;-49
2021/05/18 14:02:23;;;;;;;4.80;1.90;;;17.50;99.90;;;;;;5071512;28;20477;-43
2021/05/18 14:04:49;;;;;;;5.23;2.33;;;17.60;99.90;;;;;;5107920;28;20480;-49
2021/05/18 14:10:34;;;;;;;3.03;1.90;;;17.60;99.90;;;;;;5084817;28;20461;-45
2021/05/18 14:13:01;;;;;;;3.53;2.33;;;17.80;99.90;;;;;;5093283;28;20471;-45
2021/05/18 14:15:27;;;;;;;3.70;2.10;;;17.90;99.90;;;;;;5046258;28;20889;-45
2021/05/18 14:17:54;;;;;;;6.60;2.57;;;18.10;99.90;;;;;;5040248;28;20441;-45
2021/05/18 14:20:20;;;;;;;3.30;2.13;;;18.30;99.90;;;;;;5047195;28;20504;-43
2021/05/18 14:22:46;;;;;;;5.87;2.17;;;18.20;99.90;;;;;;5061319;28;20444;-48
2021/05/18 14:25:12;;;;;;;4.47;1.80;;;18.30;99.90;;;;;;5057732;28;20476;-45
2021/05/18 14:27:41;;;;;;;2.30;1.90;;;18.30;99.90;;;;;;5042268;27;20472;-45
2021/05/18 14:30:11;;;;;;;2.57;1.70;;;18.20;99.90;;;;;;5042427;28;20440;-43
2021/05/18 14:32:38;;;;;;;2.70;2.10;;;18.10;99.90;;;;;;5046799;27;20922;-43
2021/05/18 14:35:05;;;;;;;4.27;2.57;;;17.90;99.90;;;;;;5043756;27;20445;-45
2021/05/18 14:37:31;;;;;;;7.10;1.80;;;17.80;99.90;;;;;;5054532;27;20431;-46
2021/05/18 14:40:04;;;;;;;5.40;2.70;;;17.70;99.90;;;;;;5047216;27;20450;-55
2021/05/18 14:45:26;;;;;;;4.53;2.10;;;17.60;99.90;;;;;;5055022;27;20524;-46
2021/05/18 14:56:07;;;;;;;4.30;2.20;;;17.10;99.90;;;;;;5055806;27;20431;-43
2021/05/18 14:58:35;;;;;;;3.67;2.20;;;17.20;99.90;;;;;;5048986;28;20456;-42
2021/05/18 15:01:04;;;;;;;3.80;2.40;;;17.30;99.90;;;;;;5052980;28;20436;-43
2021/05/18 15:03:32;;;;;;;4.90;2.90;;;17.20;99.90;;;;;;5045917;28;20459;-44
2021/05/18 15:05:59;;;;;;;2.63;2.00;;;17.30;99.90;;;;;;5067901;28;20514;-43
2021/05/18 15:08:26;;;;;;;5.30;2.20;;;17.60;99.90;;;;;;5042810;28;20437;-46
2021/05/18 15:10:56;;;;;;;2.60;2.20;;;17.60;99.90;;;;;;5049258;28;20512;-48
2021/05/18 15:13:22;;;;;;;9.77;2.50;;;17.60;99.90;;;;;;5060092;28;20440;-43
2021/05/18 15:15:49;;;;;;;3.00;2.07;;;17.50;99.90;;;;;;5053494;27;20432;-42
2021/05/18 15:18:17;;;;;;;5.53;2.40;;;17.50;99.90;;;;;;5065527;28;20440;-44
2021/05/18 15:20:43;;;;;;;3.10;2.07;;;17.30;99.90;;;;;;5051615;27;20881;-45
2021/05/18 15:23:10;;;;;;;3.33;2.53;;;17.30;99.90;;;;;;5064611;27;20437;-44
2021/05/18 15:25:37;;;;;;;2.53;1.60;;;17.30;99.90;;;;;;5071050;27;20511;-44
2021/05/18 15:28:03;;;;;;;5.07;2.03;;;17.30;99.90;;;;;;5067252;27;20443;-45
2021/05/18 15:30:30;;;;;;;2.83;2.03;;;17.40;99.90;;;;;;5053763;27;20501;-45
2021/05/18 15:32:57;;;;;;;6.00;2.63;;;17.30;99.90;;;;;;5044261;27;20457;-48
2021/05/18 15:35:24;;;;;;;3.33;1.80;;;17.20;99.90;;;;;;5074097;28;20428;-44
2021/05/18 15:37:51;;;;;;;4.40;2.67;;;17.20;99.90;;;;;;5068667;28;20444;-45
2021/05/18 15:40:17;;;;;;;6.37;2.00;;;17.20;99.90;;;;;;5053394;28;20437;-47
2021/05/18 15:42:44;;;;;;;2.83;2.13;;;17.30;99.90;;;;;;5043348;28;20475;-46
2021/05/18 15:45:14;;;;;;;2.57;1.90;;;17.30;99.90;;;;;;5051444;28;20483;-49
2021/05/18 15:47:41;;;;;;;2.80;2.00;;;17.30;99.90;;;;;;5054450;28;20462;-43
2021/05/18 15:50:09;;;;;;;2.97;1.87;;;17.20;99.90;;;;;;5052043;28;20782;-46
2021/05/18 15:52:37;;;;;;;2.87;2.00;;;17.10;99.90;;;;;;5054193;28;20479;-46
2021/05/18 15:55:04;;;;;;;2.67;2.00;;;17.10;99.90;;;;;;5045536;28;20479;-45
2021/05/18 15:57:31;;;;;;;5.23;1.87;;;17.00;99.90;;;;;;5079871;28;20808;-45
2021/05/18 15:59:57;;;;;;;3.20;1.90;;;17.10;99.90;;;;;;5096005;28;20455;-46
2021/05/18 16:02:24;;;;;;;2.70;1.97;;;16.90;99.90;;;;;;5039834;28;20476;-48
2021/05/18 16:04:50;;;;;;;4.50;2.67;;;16.80;99.90;;;;;;5064252;28;20499;-46
2021/05/18 16:07:18;;;;;;;2.70;1.90;;;16.70;99.90;;;;;;5081458;28;20454;-48
2021/05/18 16:09:45;;;;;;;3.20;2.23;;;16.60;99.90;;;;;;5077623;28;20485;-47
2021/05/18 16:12:14;;;;;;;3.00;1.90;;;16.60;99.90;;;;;;5059427;28;20531;-50
2021/05/18 16:14:40;;;;;;;6.20;1.90;;;16.40;99.90;;;;;;5074190;28;20452;-47
2021/05/18 16:17:07;;;;;;;2.47;2.17;;;16.40;99.90;;;;;;5069548;28;20453;-45
2021/05/18 16:19:33;;;;;;;3.77;1.97;;;16.40;99.90;;;;;;5050754;28;20459;-44
2021/05/18 16:22:00;;;;;;;4.80;2.83;;;16.40;99.90;;;;;;5093297;28;20958;-49
2021/05/18 16:24:27;;;;;;;2.80;2.17;;;16.40;99.90;;;;;;5057823;28;20972;-49
2021/05/18 16:26:54;;;;;;;3.20;2.00;;;16.40;99.90;;;;;;5054386;28;20460;-43
2021/05/18 16:29:21;;;;;;;4.63;2.37;;;16.50;99.90;;;;;;5053270;28;20456;-47
2021/05/18 16:31:47;;;;;;;2.43;2.23;;;16.40;99.90;;;;;;5078941;28;20535;-49
2021/05/18 16:34:14;;;;;;;2.93;2.13;;;16.40;99.90;;;;;;5078748;28;20456;-47
2021/05/18 16:36:41;;;;;;;4.97;2.33;;;16.50;99.90;;;;;;5104775;28;20454;-46
2021/05/18 16:39:09;;;;;;;3.63;1.90;;;16.50;99.90;;;;;;5084635;28;20528;-43
2021/05/18 16:41:37;;;;;;;3.53;2.40;;;16.40;99.90;;;;;;5067637;28;20479;-45
2021/05/18 16:44:06;;;;;;;3.70;2.13;;;16.50;99.90;;;;;;5056340;28;20445;-45
2021/05/18 16:46:33;;;;;;;6.00;3.07;;;16.60;99.90;;;;;;5034108;28;20468;-43
2021/05/18 16:49:00;;;;;;;5.43;2.20;;;16.50;99.90;;;;;;5043167;28;20470;-43
2021/05/18 16:51:26;;;;;;;3.40;2.00;;;16.50;99.90;;;;;;5058337;28;20464;-43
2021/05/18 16:53:53;;;;;;;5.10;1.80;;;16.40;99.90;;;;;;5086065;28;20472;-49
2021/05/18 16:56:20;;;;;;;8.97;2.30;;;16.40;99.90;;;;;;5061648;28;20448;-46
2021/05/18 16:58:47;;;;;;;2.57;1.83;;;16.40;99.90;;;;;;5040833;28;20460;-44
2021/05/18 17:01:14;;;;;;;3.87;2.10;;;16.40;99.90;;;;;;5072380;28;20447;-43
2021/05/18 17:03:40;;;;;;;2.27;1.70;;;16.40;99.90;;;;;;5075953;28;20459;-43
2021/05/18 17:06:06;;;;;;;3.90;1.83;;;16.30;99.90;;;;;;5061462;28;20484;-44
2021/05/18 17:08:34;;;;;;;4.60;2.90;;;16.30;99.90;;;;;;5053749;28;20444;-42
2021/05/18 17:11:00;;;;;;;3.83;2.70;;;16.10;99.90;;;;;;5049648;28;20504;-48
2021/05/18 17:13:26;;;;;;;2.63;2.40;;;16.10;99.90;;;;;;5052194;28;20526;-44
2021/05/18 17:15:53;;;;;;;4.30;2.33;;;16.10;99.90;;;;;;5062462;28;20452;-47
2021/05/18 17:18:20;;;;;;;3.37;1.90;;;16.20;99.90;;;;;;5093178;28;20997;-46
2021/05/18 17:20:46;;;;;;;3.97;2.30;;;16.10;99.90;;;;;;5073845;28;20452;-44
2021/05/18 17:23:12;;;;;;;4.50;1.97;;;16.10;99.90;;;;;;5053031;28;20518;-48
2021/05/18 17:25:39;;;;;;;3.37;2.30;;;16.10;99.90;;;;;;5061572;28;20563;-45
2021/05/18 17:28:05;;;;;;;2.80;1.97;;;16.10;99.90;;;;;;5065472;28;20448;-45
2021/05/18 17:30:31;;;;;;;3.10;1.90;;;16.10;99.90;;;;;;5075851;28;20475;-46
2021/05/18 17:32:58;;;;;;;3.73;2.17;;;16.20;99.90;;;;;;5037439;28;20476;-46
2021/05/18 17:35:25;;;;;;;2.60;2.03;;;16.20;99.90;;;;;;5070884;28;20855;-50
2021/05/18 17:37:52;;;;;;;4.20;2.10;;;16.20;99.90;;;;;;5082790;28;20933;-44
2021/05/18 17:40:19;;;;;;;3.63;2.30;;;16.20;99.90;;;;;;5069845;28;20448;-47
2021/05/18 17:42:45;;;;;;;7.80;3.40;;;16.20;99.90;;;;;;5056304;28;20528;-45